Terminal Aerodrome Forecast
Issued by NWS Brownsville, TX

Home | Current Version | Previous Version | Text Only | Print | Product List | Glossary On
Versions: 1 2 3 4 5 6 7 8 9 10 11 12 13 14 15 16 17 18
000
FTUS44 KBRO 261720
TAFMFE
TAF
KMFE 261720Z 2618/2718 34007KT P6SM SCT022 OVC029
     FM261900 04006KT P6SM BKN040
     FM270200 11008KT P6SM OVC035
     FM270500 10004KT P6SM OVC019
     FM271200 05006KT P6SM OVC015=

USA.gov is the U.S. government's official web portal to all federal, state and local government web resources and services.